Date,TemperatureHighF,TemperatureAvgF,TemperatureLowF,DewpointHighF,DewpointAvgF,DewpointLowF,HumidityHigh,HumidityAvg,HumidityLow,PressureMaxIn,PressureMinIn,WindSpeedMaxMPH,WindSpeedAvgMPH,GustSpeedMaxMPH,PrecipitationSumIn
2013-2-1,32,19,13,26,9,-4,93,65,37,30.52,30.10,4,2,13,0.00
2013-2-2,28,19,14,17,5,-3,77,56,34,30.52,30.49,3,1,11,0.00
2013-2-3,38,27,20,30,23,16,95,84,62,30.22,30.06,4,1,12,0.10
2013-2-4,47,34,20,28,20,12,85,58,41,30.28,30.12,3,1,10,0.02
2013-2-5,50,40,35,38,27,18,81,60,48,30.13,30.04,2,1,4,0.00
2013-2-6,51,41,32,33,25,17,81,54,27,30.34,30.13,4,1,8,0.00
2013-2-7,44,38,36,37,30,20,98,74,42,30.33,30.08,6,3,12,0.48
2013-2-8,42,36,26,41,34,23,99,93,75,30.28,30.01,4,1,7,0.05
2013-2-9,49,36,23,26,16,5,94,48,24,30.48,30.26,4,2,11,0.00
2013-2-10,47,39,36,43,24,12,99,59,29,30.45,30.20,8,4,15,0.56
2013-2-11,52,46,40,50,40,12,99,80,32,30.23,30.10,5,1,12,0.05
2013-2-12,47,38,31,32,24,12,97,61,33,30.23,30.02,4,1,10,0.23
2013-2-13,46,35,27,43,33,25,99,92,71,30.02,29.75,5,2,15,0.20
2013-2-14,46,34,23,33,26,21,95,75,41,30.21,30.02,2,1,5,0.00
2013-2-15,52,37,26,34,28,24,96,72,43,30.22,30.08,3,1,9,0.01
2013-2-16,26,21,13,24,18,7,95,88,73,30.17,29.99,4,2,12,0.00
2013-2-17,25,18,11,11,7,4,80,65,46,30.48,30.16,5,2,19,0.00
2013-2-18,48,34,22,29,21,10,75,58,41,30.54,30.25,7,2,14,0.02
2013-2-19,46,34,25,38,25,11,98,70,44,30.25,30.01,7,2,19,0.15
2013-2-20,42,30,21,12,2,-12,60,34,11,30.30,30.17,4,2,9,0.00
2013-2-21,57,39,24,31,13,-12,94,37,15,30.35,30.21,5,1,7,0.36
2013-2-22,48,37,30,47,36,29,99,96,87,30.31,30.17,7,2,12,0.32
2013-2-23,48,45,38,47,44,36,99,97,87,30.17,29.91,3,0,6,0.22
2013-2-24,48,38,31,37,26,18,95,64,32,30.17,29.94,4,1,8,0.00
2013-2-25,44,36,29,31,24,18,97,63,51,30.20,30.07,9,2,15,0.00
2013-2-26,42,34,29,40,33,28,99,96,81,30.07,29.66,14,5,26,0.23
2013-2-27,50,37,29,35,29,24,96,75,46,29.92,29.77,3,1,7,0.00
2013-2-28,32,26,22,29,23,20,95,86,72,30.08,29.82,4,1,8,0.04